KONP

Newport Municipal Airport

Newport, Oregon, USA
METAR KONP 190855Z AUTO 00000KT 06/06 A3013 RMK AO2 PWINO
Observed Flight Rules
Sep-19 @ 08:55 UTC (26 minutes ago)
Temperatures Readings
Current 6°C / 43°F
Dewpoint 6°C / 43°F
Humidity 100%
Altimeter 30.13" Hg
Pressure 1020 hPa
Elevation 48
METAR KONP 190855Z AUTO 00000KT 06/06 A3013 RMK AO2 PWINO
Observed Flight Rules
Sep-19 @ 08:55 UTC
(26 minutes ago)
Temperature Dewpoint
6°C / 43°F 6°C / 43°F
Humidity Altimeter Pressure
100% 30.13" Hg 1020 hPa